createdAt,value
2019-03-17T00:01:58.539Z,0.66
2019-03-17T00:07:07.696Z,0.37
2019-03-17T00:12:17.020Z,0.30
2019-03-17T00:17:26.219Z,0.37
2019-03-17T00:22:35.450Z,0.49
2019-03-17T00:27:44.634Z,0.60
2019-03-17T00:32:54.039Z,0.43
2019-03-17T00:38:03.278Z,0.39
2019-03-17T00:43:12.642Z,0.49
2019-03-17T00:48:21.840Z,0.51
2019-03-17T00:53:31.193Z,0.31
2019-03-17T00:58:40.354Z,0.78
2019-03-17T01:03:49.550Z,0.55
2019-03-17T01:08:58.721Z,0.24
2019-03-17T01:14:07.928Z,0.51
2019-03-17T01:19:17.074Z,0.62
2019-03-17T01:24:26.287Z,0.65
2019-03-17T01:29:35.444Z,0.64
2019-03-17T01:34:44.708Z,0.77
2019-03-17T01:39:53.973Z,0.42
2019-03-17T01:45:03.267Z,0.62
2019-03-17T01:50:12.488Z,0.68
2019-03-17T01:55:21.699Z,0.48
2019-03-17T02:00:30.899Z,0.70
2019-03-17T02:05:40.100Z,0.56
2019-03-17T02:10:49.381Z,0.72
2019-03-17T02:15:58.596Z,0.42
2019-03-17T02:21:07.905Z,0.75
2019-03-17T02:26:17.106Z,0.61
2019-03-17T02:31:26.392Z,0.71
2019-03-17T02:36:35.581Z,0.85
2019-03-17T02:41:45.004Z,0.42
2019-03-17T02:46:54.240Z,0.49
2019-03-17T02:52:03.502Z,0.42
2019-03-17T02:57:12.770Z,0.45
2019-03-17T03:02:20.535Z,0.57
2019-03-17T03:07:29.731Z,0.45
2019-03-17T03:12:38.999Z,0.46
2019-03-17T03:17:48.196Z,0.47
2019-03-17T03:22:57.603Z,0.57
2019-03-17T03:28:06.815Z,0.44
2019-03-17T03:33:16.177Z,0.53
2019-03-17T03:38:25.479Z,0.30
2019-03-17T03:43:34.900Z,0.36
2019-03-17T03:48:44.110Z,0.36
2019-03-17T03:53:53.388Z,0.39
2019-03-17T03:59:02.651Z,0.34
2019-03-17T04:04:11.923Z,0.44
2019-03-17T04:09:21.071Z,0.41
2019-03-17T04:14:30.267Z,0.85
2019-03-17T04:19:39.421Z,0.84
2019-03-17T04:24:48.706Z,0.48
2019-03-17T04:29:57.918Z,0.48
2019-03-17T04:35:07.186Z,0.97
2019-03-17T04:40:16.375Z,0.84
2019-03-17T04:45:25.646Z,0.91
2019-03-17T04:50:34.838Z,0.46
2019-03-17T04:55:44.207Z,0.76
2019-03-17T05:00:53.483Z,0.86
2019-03-17T05:06:02.831Z,0.43
2019-03-17T05:11:12.054Z,0.57
2019-03-17T05:16:21.439Z,0.53
2019-03-17T05:21:30.658Z,0.88
2019-03-17T05:26:39.876Z,0.63
2019-03-17T05:31:49.207Z,1.16
2019-03-17T05:37:06.202Z,0.58
2019-03-17T05:42:07.319Z,0.41
2019-03-17T05:47:16.542Z,0.64
2019-03-17T05:52:25.789Z,0.97
2019-03-17T05:57:35.030Z,0.45
2019-03-17T06:02:45.841Z,0.82
2019-03-17T06:07:45.265Z,0.69
2019-03-17T06:12:54.603Z,0.86
2019-03-17T06:18:03.886Z,0.72
2019-03-17T06:23:13.308Z,0.69
2019-03-17T06:28:22.615Z,0.50
2019-03-17T06:33:31.951Z,0.44
2019-03-17T06:38:41.272Z,0.74
2019-03-17T06:43:50.451Z,0.56
2019-03-17T06:48:59.717Z,0.70
2019-03-17T06:54:08.912Z,0.61
2019-03-17T06:59:18.208Z,0.55
2019-03-17T07:04:27.370Z,0.64
2019-03-17T07:09:36.555Z,0.67
2019-03-17T07:14:45.967Z,0.90
2019-03-17T07:19:55.272Z,0.63
2019-03-17T07:25:04.534Z,0.62
2019-03-17T07:30:13.746Z,0.66
2019-03-17T07:35:23.033Z,0.37
2019-03-17T07:40:32.259Z,1.19
2019-03-17T07:45:41.535Z,0.57
2019-03-17T07:50:50.786Z,0.57
2019-03-17T07:56:00.003Z,0.88
2019-03-17T08:01:09.227Z,0.58
2019-03-17T08:06:18.511Z,0.92
2019-03-17T08:11:27.991Z,0.73
2019-03-17T08:16:37.336Z,1.26
2019-03-17T08:21:46.907Z,0.70
2019-03-17T08:26:56.143Z,0.56
2019-03-17T08:32:05.444Z,0.68
2019-03-17T08:37:15.309Z,0.64
2019-03-17T08:42:25.719Z,0.49
2019-03-17T08:47:25.839Z,0.81
2019-03-17T08:52:25.124Z,0.58
2019-03-17T08:57:34.460Z,0.51
2019-03-17T09:02:44.056Z,0.57
2019-03-17T09:07:53.295Z,0.76
2019-03-17T09:13:04.334Z,0.66
2019-03-17T09:18:11.396Z,0.57
2019-03-17T09:23:21.273Z,0.82
2019-03-17T09:28:30.509Z,0.51
2019-03-17T09:33:40.707Z,1.04
2019-03-17T09:38:47.118Z,2.58
2019-03-17T09:43:48.840Z,1.22
2019-03-17T09:48:58.179Z,1.79
2019-03-17T09:54:07.510Z,1.16
2019-03-17T09:59:16.754Z,1.62
2019-03-17T10:04:26.002Z,1.32
2019-03-17T10:09:35.303Z,1.17
2019-03-17T10:14:44.646Z,0.77
2019-03-17T10:19:53.864Z,1.07
2019-03-17T10:25:03.100Z,0.79
2019-03-17T10:30:12.393Z,0.87
2019-03-17T10:35:21.879Z,0.66
2019-03-17T10:40:31.107Z,0.88
2019-03-17T10:45:40.474Z,0.75
2019-03-17T10:50:50.023Z,0.76
2019-03-17T10:55:58.560Z,0.74
2019-03-17T11:01:07.751Z,0.54
2019-03-17T11:06:16.983Z,0.45
2019-03-17T11:11:26.222Z,0.64
2019-03-17T11:16:35.571Z,0.38
2019-03-17T11:21:45.009Z,0.77
2019-03-17T11:26:55.736Z,0.23
2019-03-17T11:32:03.176Z,0.38
2019-03-17T11:37:12.512Z,0.40
2019-03-17T11:42:21.863Z,0.51
2019-03-17T11:47:31.328Z,0.39
2019-03-17T11:52:40.595Z,0.66
2019-03-17T11:57:49.994Z,0.61
2019-03-17T12:02:59.353Z,0.45
2019-03-17T12:08:09.132Z,0.67
2019-03-17T12:13:18.584Z,0.43
2019-03-17T12:18:28.193Z,0.43
2019-03-17T12:23:37.610Z,0.52
2019-03-17T12:28:47.070Z,0.65
2019-03-17T12:33:56.534Z,0.35
2019-03-17T12:39:06.061Z,0.46
2019-03-17T12:44:15.617Z,0.34
2019-03-17T12:49:24.871Z,0.33
2019-03-17T12:54:34.513Z,0.33
2019-03-17T12:59:43.787Z,0.43
2019-03-17T13:04:53.163Z,0.24
2019-03-17T13:10:14.573Z,0.23
2019-03-17T13:15:11.349Z,0.24
2019-03-17T13:20:20.678Z,0.08
2019-03-17T13:25:30.036Z,0.23
2019-03-17T13:30:39.400Z,0.13
2019-03-17T13:35:48.781Z,0.23
2019-03-17T13:40:58.028Z,0.10
2019-03-17T13:46:07.356Z,0.10
2019-03-17T13:51:16.635Z,0.09
2019-03-17T13:56:26.201Z,0.43
2019-03-17T14:01:35.558Z,0.16
2019-03-17T14:06:44.982Z,0.16
2019-03-17T14:11:54.430Z,0.15
2019-03-17T14:17:03.698Z,0.08
2019-03-17T14:22:12.977Z,0.10
2019-03-17T14:27:22.254Z,0.14
2019-03-17T14:32:31.486Z,0.15
2019-03-17T14:37:40.797Z,0.19
2019-03-17T14:42:50.159Z,0.09
2019-03-17T14:47:59.493Z,0.15
2019-03-17T14:53:08.843Z,0.17
2019-03-17T14:58:18.054Z,0.10
2019-03-17T15:03:27.594Z,0.20
2019-03-17T15:08:37.009Z,0.08
2019-03-17T15:13:46.379Z,0.16
2019-03-17T15:18:55.943Z,0.22
2019-03-17T15:24:05.179Z,0.12
2019-03-17T15:29:14.619Z,0.28
2019-03-17T15:34:23.907Z,0.11
2019-03-17T15:39:33.143Z,0.10
2019-03-17T15:44:42.811Z,0.10
2019-03-17T15:49:55.119Z,0.16
2019-03-17T15:54:54.540Z,0.17
2019-03-17T16:00:04.108Z,0.17
2019-03-17T16:05:13.329Z,0.20
2019-03-17T16:10:22.849Z,0.22
2019-03-17T16:15:32.170Z,0.17
2019-03-17T16:20:41.518Z,0.21
2019-03-17T16:25:50.805Z,0.09
2019-03-17T16:31:00.378Z,0.12
2019-03-17T16:36:09.645Z,0.19
2019-03-17T16:41:19.129Z,0.18
2019-03-17T16:46:28.408Z,0.11
2019-03-17T16:51:37.774Z,0.16
2019-03-17T16:56:47.259Z,0.10
2019-03-17T17:01:56.476Z,0.10
2019-03-17T17:07:05.714Z,0.11
2019-03-17T17:12:15.109Z,0.11
2019-03-17T17:17:24.400Z,0.05
2019-03-17T17:22:33.788Z,0.12
2019-03-17T17:27:43.044Z,0.15
2019-03-17T17:32:52.378Z,0.22
2019-03-17T17:38:01.642Z,0.10
2019-03-17T17:43:10.971Z,0.11
2019-03-17T17:48:20.176Z,0.13
2019-03-17T17:53:29.428Z,0.13
2019-03-17T17:58:38.998Z,0.21
2019-03-17T18:03:51.798Z,0.10
2019-03-17T18:08:57.018Z,0.17
2019-03-17T18:14:06.458Z,0.26
2019-03-17T18:19:15.757Z,0.17
2019-03-17T18:24:25.174Z,0.59
2019-03-17T18:29:34.419Z,0.20
2019-03-17T18:34:43.721Z,0.26
2019-03-17T18:39:52.960Z,0.18
2019-03-17T18:45:02.362Z,0.29
2019-03-17T18:50:20.222Z,0.28
2019-03-17T18:55:20.401Z,0.17
2019-03-17T19:00:29.712Z,0.42
2019-03-17T19:05:39.012Z,0.84
2019-03-17T19:10:48.862Z,0.88
2019-03-17T19:15:58.253Z,0.78
2019-03-17T19:21:07.740Z,0.40
2019-03-17T19:26:17.007Z,0.54
2019-03-17T19:31:30.035Z,0.29
2019-03-17T19:36:29.111Z,0.56
2019-03-17T19:41:38.347Z,0.39
2019-03-17T19:46:47.714Z,0.43
2019-03-17T19:51:57.003Z,0.63
2019-03-17T19:57:06.320Z,0.44
2019-03-17T20:02:15.652Z,0.97
2019-03-17T20:07:24.898Z,0.57
2019-03-17T20:12:34.171Z,0.66
2019-03-17T20:17:43.512Z,0.59
2019-03-17T20:22:52.940Z,0.53
2019-03-17T20:28:02.266Z,1.01
2019-03-17T20:33:11.565Z,0.58
2019-03-17T20:38:20.835Z,0.74
2019-03-17T20:43:35.018Z,0.72
2019-03-17T20:48:38.951Z,0.98
2019-03-17T20:53:48.379Z,0.52
2019-03-17T20:58:57.727Z,0.68
2019-03-17T21:04:07.167Z,0.79
2019-03-17T21:09:16.386Z,0.44
2019-03-17T21:14:25.682Z,0.37
2019-03-17T21:19:34.936Z,0.58
2019-03-17T21:24:44.301Z,0.31
2019-03-17T21:29:53.547Z,0.59
2019-03-17T21:35:02.771Z,0.32
2019-03-17T21:40:12.239Z,0.72
2019-03-17T21:45:21.493Z,0.34
2019-03-17T21:50:30.760Z,0.47
2019-03-17T21:55:40.030Z,0.41
2019-03-17T22:00:49.232Z,0.30
2019-03-17T22:05:58.509Z,0.50
2019-03-17T22:11:07.876Z,0.30
2019-03-17T22:16:17.093Z,0.53
2019-03-17T22:21:26.384Z,0.19
2019-03-17T22:26:35.574Z,0.45
2019-03-17T22:31:44.943Z,0.37
2019-03-17T22:36:54.070Z,0.33
2019-03-17T22:42:03.312Z,0.29
2019-03-17T22:47:12.512Z,0.24
2019-03-17T22:52:21.877Z,0.22
2019-03-17T22:57:31.153Z,0.38
2019-03-17T23:02:40.484Z,0.30
2019-03-17T23:07:49.713Z,0.26
2019-03-17T23:12:58.982Z,0.33
2019-03-17T23:18:08.168Z,0.34
2019-03-17T23:23:17.517Z,0.39
2019-03-17T23:29:08.719Z,0.38
2019-03-17T23:34:17.931Z,0.22
2019-03-17T23:39:27.425Z,0.43
2019-03-17T23:44:48.285Z,0.19
2019-03-17T23:49:45.475Z,0.33
2019-03-17T23:54:54.706Z,0.29
